Time;durP1;ratioP1;P1;durP2;ratioP2;P2;SDS_P1;SDS_P2;PMS_P1;PMS_P2;Temp;Humidity;BMP_temperature;BMP_pressure;BME280_temperature;BME280_humidity;BME280_pressure;Samples;Min_cycle;Max_cycle;Signal;HPM_P1;HPM_P2
2022/06/05 00:01:20;;;;;;;4.10;3.10;;;;;;;15.92;62.40;99628.82;109340;1272;137468;-60
2022/06/05 00:04:09;;;;;;;4.10;2.90;;;;;;;15.82;62.76;99626.56;109396;1274;24074;-60
2022/06/05 00:06:39;;;;;;;8.50;3.40;;;;;;;15.74;62.08;99636.09;109228;1274;139408;-60
2022/06/05 00:09:29;;;;;;;4.40;3.00;;;;;;;15.70;61.43;99638.71;109434;1273;24886;-60
2022/06/05 00:12:07;;;;;;;4.90;3.10;;;;;;;15.74;61.86;99649.64;109340;1274;22441;-60
2022/06/05 00:14:37;;;;;;;7.50;3.00;;;;;;;15.74;61.94;99648.10;109218;1273;138006;-60
2022/06/05 00:17:08;;;;;;;3.00;2.70;;;;;;;15.75;62.41;99635.23;109299;1274;24391;-60
2022/06/05 00:19:43;;;;;;;3.60;2.40;;;;;;;15.77;62.98;99623.80;109222;1273;138405;-60
2022/06/05 00:22:10;;;;;;;4.20;3.00;;;;;;;15.76;63.51;99620.29;109311;1274;22494;-60
2022/06/05 00:24:36;;;;;;;5.90;2.70;;;;;;;15.75;63.69;99621.95;109275;1273;139164;-60
2022/06/05 00:27:09;;;;;;;3.60;2.40;;;;;;;15.72;63.79;99614.23;109323;1273;22439;-60
2022/06/05 00:29:46;;;;;;;3.20;2.10;;;;;;;15.72;62.78;99605.40;109323;1273;22521;-60
2022/06/05 00:32:27;;;;;;;3.00;2.40;;;;;;;15.78;61.25;99599.56;109163;1274;139629;-61
2022/06/05 00:34:53;;;;;;;3.10;2.10;;;;;;;15.88;60.25;99594.74;109304;1274;22425;-60
2022/06/05 00:37:28;;;;;;;3.00;2.20;;;;;;;15.99;59.50;99593.47;109200;1273;137977;-60
2022/06/05 00:40:13;;;;;;;4.10;2.00;;;;;;;16.11;58.70;99594.37;109368;1272;22419;-60
2022/06/05 00:42:40;;;;;;;3.70;2.10;;;;;;;16.25;58.20;99591.84;109176;1273;138081;-60
2022/06/05 00:45:09;;;;;;;4.40;1.80;;;;;;;16.36;57.69;99591.32;109347;1273;22463;-60
2022/06/05 00:47:36;;;;;;;6.30;1.90;;;;;;;16.46;57.17;99589.98;109229;1273;23396;-60
2022/06/05 00:50:16;;;;;;;4.10;1.80;;;;;;;16.56;56.74;99588.75;109044;1273;139625;-60
2022/06/05 00:52:46;;;;;;;5.60;2.20;;;;;;;16.66;56.03;99586.55;109191;1274;22422;-60
2022/06/05 00:55:14;;;;;;;2.90;1.90;;;;;;;16.74;55.74;99586.86;109264;1273;137277;-60
2022/06/05 00:57:40;;;;;;;3.50;2.20;;;;;;;16.80;55.36;99582.66;109330;1273;22455;-60
2022/06/05 01:00:19;;;;;;;2.50;2.10;;;;;;;16.90;55.17;99585.65;109402;1274;22368;-60
2022/06/05 01:02:48;;;;;;;4.00;1.90;;;;;;;16.96;54.98;99586.44;109311;1274;22451;-60
2022/06/05 01:05:16;;;;;;;3.00;2.40;;;;;;;17.00;54.82;99586.45;109224;1273;22486;-64
2022/06/05 01:07:43;;;;;;;2.40;2.10;;;;;;;17.04;54.69;99584.28;109207;1273;137636;-64
2022/06/05 01:10:10;;;;;;;3.90;2.40;;;;;;;17.06;54.68;99580.28;109135;1275;23309;-64
2022/06/05 01:12:51;;;;;;;2.50;2.30;;;;;;;17.07;54.70;99574.05;109125;1274;139380;-64
2022/06/05 01:15:39;;;;;;;3.50;2.20;;;;;;;17.08;54.86;99577.34;109524;1271;23534;-65
2022/06/05 01:18:22;;;;;;;4.40;2.10;;;;;;;17.08;54.67;99575.91;109510;1273;22688;-65
2022/06/05 01:21:04;;;;;;;2.30;2.10;;;;;;;17.07;54.47;99565.24;109441;1273;23493;-65
2022/06/05 01:23:50;;;;;;;4.70;2.10;;;;;;;17.08;54.43;99563.95;109437;1274;22425;-65
2022/06/05 01:26:38;;;;;;;3.70;2.50;;;;;;;17.09;54.30;99566.25;109229;1273;137392;-64
2022/06/05 01:29:11;;;;;;;3.00;2.40;;;;;;;17.10;54.24;99574.00;109311;1273;22405;-65
2022/06/05 01:31:39;;;;;;;4.80;2.30;;;;;;;17.11;54.27;99575.31;109077;1274;138346;-64
2022/06/05 01:34:38;;;;;;;4.40;2.20;;;;;;;17.10;53.92;99573.19;109265;1273;23249;-64
2022/06/05 01:37:15;;;;;;;3.70;2.40;;;;;;;17.12;53.91;99569.95;109098;1274;137323;-60
2022/06/05 01:40:04;;;;;;;2.90;2.20;;;;;;;17.13;53.88;99570.77;109456;1273;22523;-59
2022/06/05 01:42:38;;;;;;;4.70;2.30;;;;;;;17.14;53.89;99570.15;109218;1274;137772;-60
2022/06/05 01:45:15;;;;;;;6.20;2.70;;;;;;;17.14;53.76;99568.44;109176;1274;23030;-61
2022/06/05 01:47:44;;;;;;;3.80;2.60;;;;;;;17.16;53.55;99573.04;109160;1274;23182;-60
2022/06/05 01:50:15;;;;;;;3.40;2.20;;;;;;;17.17;53.36;99571.06;109067;1273;137775;-59
2022/06/05 01:53:06;;;;;;;2.90;2.10;;;;;;;17.18;53.30;99564.66;109318;1273;23567;-60
2022/06/05 01:55:51;;;;;;;3.30;2.20;;;;;;;17.21;53.34;99571.62;109223;1274;137985;-60
2022/06/05 01:58:19;;;;;;;4.00;2.40;;;;;;;17.22;53.28;99574.41;109470;1273;22449;-61
2022/06/05 02:00:50;;;;;;;5.00;2.40;;;;;;;17.23;53.40;99578.19;109287;1274;138025;-60
2022/06/05 02:03:35;;;;;;;3.10;2.00;;;;;;;17.24;53.40;99579.51;109390;1273;22432;-60
2022/06/05 02:06:05;;;;;;;4.50;2.10;;;;;;;17.23;53.30;99580.17;109123;1273;22431;-59
2022/06/05 02:08:36;;;;;;;3.50;2.00;;;;;;;17.23;53.28;99579.35;108936;1273;138152;-60
2022/06/05 02:11:19;;;;;;;3.30;2.20;;;;;;;17.23;53.19;99570.81;109156;1274;22468;-61
2022/06/05 02:13:47;;;;;;;3.50;2.50;;;;;;;17.24;53.14;99568.16;109121;1273;138829;-62
2022/06/05 02:16:14;;;;;;;2.30;2.10;;;;;;;17.23;53.19;99561.45;109345;1273;22450;-59
2022/06/05 02:18:41;;;;;;;4.60;2.70;;;;;;;17.23;53.28;99554.19;109143;1274;138320;-58
2022/06/05 02:21:07;;;;;;;4.40;2.10;;;;;;;17.22;53.46;99551.27;109370;1273;22450;-58
2022/06/05 02:23:36;;;;;;;3.60;2.60;;;;;;;17.21;53.45;99548.38;109391;1273;23271;-58
2022/06/05 02:26:05;;;;;;;8.90;2.40;;;;;;;17.19;53.56;99544.88;109251;1273;137853;-58
2022/06/05 02:28:32;;;;;;;4.50;2.60;;;;;;;17.17;53.54;99544.60;109350;1274;22466;-58
2022/06/05 02:31:11;;;;;;;4.00;2.50;;;;;;;17.16;53.53;99549.36;109286;1273;138089;-58
2022/06/05 02:33:54;;;;;;;3.90;2.80;;;;;;;17.14;53.67;99545.44;109439;1274;23138;-57
2022/06/05 02:36:30;;;;;;;5.40;2.30;;;;;;;17.13;53.66;99548.36;108850;1274;326396;-58
2022/06/05 02:39:55;;;;;;;4.60;2.80;;;;;;;17.13;53.72;99550.77;101687;1308;545272;-58
2022/06/05 02:42:30;;;;;;;3.70;2.80;;;;;;;17.11;53.82;99551.29;103770;1286;137461;-58
2022/06/05 02:45:30;;;;;;;5.90;2.80;;;;;;;17.11;53.46;99549.05;108102;1287;22475;-59
2022/06/05 02:48:03;;;;;;;3.70;2.80;;;;;;;17.10;53.68;99546.25;103501;1289;25891;-59
2022/06/05 02:50:44;;;;;;;4.40;2.60;;;;;;;17.09;53.85;99545.33;103525;1289;137715;-59
2022/06/05 02:53:11;;;;;;;3.30;2.80;;;;;;;17.08;53.91;99543.20;103607;1287;201017;-60
2022/06/05 02:55:38;;;;;;;4.00;2.40;;;;;;;17.07;54.06;99541.50;103767;1286;137913;-59
2022/06/05 02:58:05;;;;;;;3.60;2.70;;;;;;;17.05;54.05;99534.38;103840;1286;24254;-59
2022/06/05 03:00:33;;;;;;;4.50;2.70;;;;;;;17.04;54.06;99531.05;103726;1286;137991;-60
2022/06/05 03:05:46;;;;;;;5.50;2.80;;;;;;;17.02;54.27;99523.78;103702;1286;25276;-59
2022/06/05 03:08:14;;;;;;;3.20;2.60;;;;;;;17.01;54.40;99527.20;103486;1287;138780;-59
2022/06/05 03:10:41;;;;;;;3.30;2.60;;;;;;;17.01;54.55;99525.92;108076;1286;23157;-59
2022/06/05 03:13:08;;;;;;;5.20;2.60;;;;;;;17.00;54.72;99529.30;108066;1286;138826;-59
2022/06/05 03:15:35;;;;;;;6.20;3.00;;;;;;;17.00;54.90;99528.55;108206;1286;22458;-59
2022/06/05 03:18:03;;;;;;;2.90;2.10;;;;;;;16.99;54.97;99534.23;108194;1286;22489;-57
2022/06/05 03:20:29;;;;;;;4.40;2.60;;;;;;;16.98;54.93;99536.54;108214;1284;137024;-58
2022/06/05 03:22:56;;;;;;;3.50;2.70;;;;;;;16.99;55.07;99530.80;108150;1287;22549;-58
2022/06/05 03:25:23;;;;;;;6.40;2.40;;;;;;;16.99;55.21;99527.72;108095;1286;137053;-58
2022/06/05 03:27:53;;;;;;;5.70;2.50;;;;;;;16.99;55.40;99524.58;108166;1286;23163;-58
2022/06/05 03:30:20;;;;;;;4.40;2.30;;;;;;;17.00;55.42;99524.23;108076;1286;137869;-58
2022/06/05 03:32:47;;;;;;;5.10;2.80;;;;;;;17.00;55.47;99528.04;108135;1286;23271;-58
2022/06/05 03:35:14;;;;;;;4.30;2.70;;;;;;;17.01;55.17;99529.51;108085;1286;22471;-58
2022/06/05 03:37:41;;;;;;;2.70;2.20;;;;;;;17.02;55.22;99528.55;108244;1285;137451;-58
2022/06/05 03:40:14;;;;;;;5.00;2.30;;;;;;;17.05;55.07;99528.11;108190;1286;22443;-58
2022/06/05 03:42:42;;;;;;;3.90;2.50;;;;;;;17.06;55.04;99528.20;108052;1286;137321;-59
2022/06/05 03:45:14;;;;;;;5.20;2.20;;;;;;;17.08;55.10;99528.44;108198;1285;22487;-59
2022/06/05 03:47:41;;;;;;;4.90;2.80;;;;;;;17.10;55.06;99531.77;108190;1285;23433;-59
2022/06/05 03:50:09;;;;;;;4.50;2.30;;;;;;;17.11;55.11;99537.04;108212;1285;138434;-59
2022/06/05 03:52:36;;;;;;;3.10;2.10;;;;;;;17.12;55.39;99542.30;108184;1286;23195;-59
2022/06/05 03:55:03;;;;;;;3.80;2.40;;;;;;;17.14;55.15;99542.45;107914;1287;138136;-59
2022/06/05 03:57:30;;;;;;;4.40;2.10;;;;;;;17.14;54.75;99541.45;108296;1285;23242;-59
2022/06/05 03:59:57;;;;;;;4.60;2.70;;;;;;;17.15;54.68;99539.02;108186;1286;22438;-59
2022/06/05 04:02:25;;;;;;;5.70;2.10;;;;;;;17.16;54.62;99542.58;108074;1286;138553;-59
2022/06/05 04:04:52;;;;;;;4.10;1.80;;;;;;;17.16;54.59;99548.65;109216;1274;22435;-59
2022/06/05 04:07:19;;;;;;;11.70;2.40;;;;;;;17.16;54.53;99545.73;109099;1276;136933;-59
2022/06/05 04:09:46;;;;;;;3.20;2.20;;;;;;;17.16;54.68;99549.98;109343;1271;23682;-59
2022/06/05 04:12:13;;;;;;;3.70;2.30;;;;;;;17.16;54.71;99543.08;109200;1274;22667;-59
2022/06/05 04:14:40;;;;;;;3.10;2.30;;;;;;;17.17;54.91;99542.56;109121;1274;137691;-59
2022/06/05 04:17:06;;;;;;;3.20;1.90;;;;;;;17.18;55.05;99549.20;109343;1274;23269;-59
2022/06/05 04:19:33;;;;;;;4.00;2.10;;;;;;;17.17;55.00;99548.99;109083;1275;138212;-59
2022/06/05 04:22:04;;;;;;;3.30;2.30;;;;;;;17.18;54.79;99556.56;109185;1276;22447;-59
2022/06/05 04:24:30;;;;;;;3.80;2.00;;;;;;;17.19;54.85;99547.54;109079;1275;137276;-59
2022/06/05 04:26:58;;;;;;;5.10;1.90;;;;;;;17.19;54.95;99547.80;109178;1274;22500;-59
2022/06/05 04:29:25;;;;;;;4.30;1.90;;;;;;;17.20;54.74;99549.27;109353;1273;23242;-59
2022/06/05 04:31:51;;;;;;;3.00;2.10;;;;;;;17.22;54.91;99551.29;109156;1274;137050;-59
2022/06/05 04:34:20;;;;;;;5.30;2.10;;;;;;;17.23;54.80;99555.88;109176;1274;23109;-59
2022/06/05 04:36:47;;;;;;;3.70;2.40;;;;;;;17.25;54.83;99560.21;109095;1274;138952;-59
2022/06/05 04:39:14;;;;;;;4.80;2.20;;;;;;;17.26;54.80;99561.19;109232;1274;22414;-59
2022/06/05 04:41:41;;;;;;;4.30;2.50;;;;;;;17.27;54.83;99567.17;109125;1276;22520;-59
2022/06/05 04:44:10;;;;;;;4.70;2.70;;;;;;;17.28;54.83;99570.80;109109;1274;137469;-59
2022/06/05 04:46:37;;;;;;;5.10;2.60;;;;;;;17.29;55.08;99575.29;109160;1275;23027;-59
2022/06/05 04:49:06;;;;;;;3.60;2.60;;;;;;;17.32;55.62;99575.34;109092;1274;137411;-59
2022/06/05 04:51:34;;;;;;;6.80;2.80;;;;;;;17.34;56.03;99586.71;109255;1274;23134;-59
2022/06/05 04:54:01;;;;;;;4.40;2.90;;;;;;;17.36;56.93;99592.19;109293;1273;23108;-59
2022/06/05 04:56:28;;;;;;;4.30;2.90;;;;;;;17.38;57.27;99606.65;109100;1274;136777;-59
2022/06/05 04:58:55;;;;;;;3.90;2.10;;;;;;;17.38;57.23;99605.70;109270;1274;22668;-59
2022/06/05 05:01:30;;;;;;;6.00;2.30;;;;;;;17.39;58.07;99612.36;109116;1274;137281;-59
2022/06/05 05:03:58;;;;;;;4.80;2.20;;;;;;;17.38;58.67;99617.50;109360;1273;22550;-59
2022/06/05 05:06:26;;;;;;;4.80;2.40;;;;;;;17.37;58.84;99622.48;109237;1273;139562;-59
2022/06/05 05:08:52;;;;;;;4.70;2.70;;;;;;;17.37;58.99;99620.66;109205;1275;22422;-59
2022/06/05 05:11:19;;;;;;;2.80;2.00;;;;;;;17.38;58.68;99619.48;109242;1274;22571;-59
2022/06/05 05:13:46;;;;;;;4.10;2.10;;;;;;;17.41;58.19;99616.73;109136;1275;136981;-59
2022/06/05 05:16:13;;;;;;;8.20;2.30;;;;;;;17.45;58.08;99617.94;109174;1275;22461;-59
2022/06/05 05:18:40;;;;;;;2.90;2.50;;;;;;;17.50;57.63;99619.39;109055;1274;137208;-59
2022/06/05 05:21:18;;;;;;;3.60;2.20;;;;;;;17.54;57.34;99620.43;109242;1274;23324;-59
2022/06/05 05:23:47;;;;;;;4.90;1.90;;;;;;;17.57;57.29;99624.13;109187;1274;22437;-59
2022/06/05 05:26:16;;;;;;;3.50;2.60;;;;;;;17.61;57.36;99621.51;107257;1276;138005;-59
2022/06/05 05:28:43;;;;;;;5.20;3.40;;;;;;;17.63;57.24;99624.11;104970;1276;23030;-59
2022/06/05 05:31:12;;;;;;;4.10;3.60;;;;;;;17.63;57.49;99626.84;104773;1276;137624;-60
2022/06/05 05:33:39;;;;;;;5.90;3.10;;;;;;;17.63;57.41;99632.90;109253;1274;22493;-58
2022/06/05 05:36:08;;;;;;;33.20;23.70;;;;;;;17.64;57.73;99634.45;109225;1274;22411;-59
2022/06/05 05:38:36;;;;;;;7.20;5.20;;;;;;;17.64;58.32;99632.79;109087;1274;138393;-59
2022/06/05 05:43:48;;;;;;;4.50;3.30;;;;;;;17.68;58.94;99640.50;109028;1274;137086;-59
2022/06/05 05:46:15;;;;;;;4.40;3.70;;;;;;;17.70;59.06;99641.02;109130;1274;22238;-59
2022/06/05 05:48:42;;;;;;;5.10;3.80;;;;;;;17.72;58.35;99639.45;109102;1274;137751;-59
2022/06/05 05:51:12;;;;;;;6.30;4.20;;;;;;;17.76;57.87;99640.84;109194;1274;22612;-59
2022/06/05 05:53:39;;;;;;;6.00;3.50;;;;;;;17.79;57.79;99636.16;109066;1276;22597;-59
2022/06/05 05:56:11;;;;;;;5.60;3.80;;;;;;;17.82;57.90;99636.11;108967;1276;138449;-62
2022/06/05 05:58:38;;;;;;;5.00;3.40;;;;;;;17.86;57.77;99631.98;109118;1276;23555;-61
2022/06/05 06:01:07;;;;;;;5.60;3.30;;;;;;;17.90;57.65;99631.35;109039;1276;138487;-62
2022/06/05 06:03:34;;;;;;;6.60;3.50;;;;;;;17.93;57.20;99629.89;109281;1274;22429;-61
2022/06/05 06:06:01;;;;;;;7.80;3.30;;;;;;;17.96;57.20;99630.50;109098;1276;22676;-61
2022/06/05 06:08:28;;;;;;;7.20;4.20;;;;;;;18.00;57.45;99624.20;109135;1274;138410;-61
2022/06/05 06:10:55;;;;;;;42.80;34.80;;;;;;;18.03;57.17;99620.25;109103;1276;22520;-63
2022/06/05 06:13:22;;;;;;;10.10;6.00;;;;;;;18.05;56.79;99617.11;109019;1274;137682;-62
2022/06/05 06:15:49;;;;;;;7.40;5.20;;;;;;;18.08;56.83;99611.11;109136;1276;22263;-62
2022/06/05 06:18:20;;;;;;;9.00;4.60;;;;;;;18.11;56.64;99607.75;109121;1274;138759;-63
2022/06/05 06:20:47;;;;;;;9.60;5.60;;;;;;;18.13;56.99;99607.42;109227;1276;23584;-62
2022/06/05 06:23:14;;;;;;;9.80;5.40;;;;;;;18.16;56.94;99607.08;109360;1273;22459;-61
2022/06/05 06:25:41;;;;;;;8.40;5.60;;;;;;;18.21;57.08;99611.27;108211;1273;137407;-63
2022/06/05 06:28:08;;;;;;;8.40;5.60;;;;;;;18.26;56.40;99613.85;109348;1273;22440;-63
2022/06/05 06:30:35;;;;;;;9.60;5.80;;;;;;;18.30;56.01;99613.05;108970;1278;138591;-63
2022/06/05 06:33:02;;;;;;;10.50;6.10;;;;;;;18.33;56.24;99614.02;109051;1277;22508;-59
2022/06/05 06:35:29;;;;;;;15.40;7.10;;;;;;;18.39;55.77;99613.61;109296;1273;22426;-59
2022/06/05 06:37:55;;;;;;;10.50;7.00;;;;;;;18.44;55.55;99614.64;109102;1276;137598;-61
2022/06/05 06:40:22;;;;;;;10.50;7.00;;;;;;;18.47;55.41;99617.75;109178;1276;22567;-62
2022/06/05 06:42:49;;;;;;;10.00;6.10;;;;;;;18.51;55.29;99622.92;109017;1276;137534;-62
2022/06/05 06:45:18;;;;;;;10.10;6.40;;;;;;;18.54;55.74;99620.49;109071;1276;22464;-66
2022/06/05 06:47:45;;;;;;;11.20;7.00;;;;;;;18.58;55.73;99619.59;109183;1274;22451;-66
2022/06/05 06:50:12;;;;;;;9.80;6.20;;;;;;;18.62;55.73;99619.50;109139;1276;137854;-66
2022/06/05 06:52:39;;;;;;;11.40;6.30;;;;;;;18.66;55.69;99615.62;105718;1274;25331;-63
2022/06/05 06:55:07;;;;;;;14.10;6.00;;;;;;;18.67;55.94;99608.92;104820;1276;137592;-66
2022/06/05 06:57:34;;;;;;;11.20;5.80;;;;;;;18.72;55.94;99609.65;104805;1276;22719;-64
2022/06/05 07:00:01;;;;;;;11.80;6.20;;;;;;;18.74;56.14;99610.45;104792;1276;22624;-61
2022/06/05 07:02:27;;;;;;;14.90;7.40;;;;;;;18.74;56.05;99613.48;104636;1278;139038;-66
2022/06/05 07:04:54;;;;;;;15.80;8.10;;;;;;;18.74;55.60;99615.67;104859;1278;24313;-64
2022/06/05 07:07:21;;;;;;;11.90;8.90;;;;;;;18.74;55.22;99615.35;104715;1276;137552;-65
2022/06/05 07:09:48;;;;;;;13.20;8.60;;;;;;;18.73;55.44;99615.64;104897;1274;25335;-62
2022/06/05 07:12:17;;;;;;;13.80;8.70;;;;;;;18.74;56.10;99618.17;104754;1275;24267;-64
2022/06/05 07:14:44;;;;;;;12.70;8.20;;;;;;;18.73;55.91;99620.02;109177;1276;23753;-64
2022/06/05 07:17:11;;;;;;;11.80;7.20;;;;;;;18.72;55.92;99618.25;109215;1275;22492;-64
2022/06/05 07:19:38;;;;;;;11.30;7.60;;;;;;;18.72;55.89;99613.73;109192;1274;137559;-64
2022/06/05 07:22:04;;;;;;;11.80;6.60;;;;;;;18.70;55.93;99611.83;109146;1276;22449;-65
2022/06/05 07:24:31;;;;;;;7.40;4.40;;;;;;;18.68;56.10;99615.58;109114;1276;137605;-64
2022/06/05 07:26:58;;;;;;;5.60;3.70;;;;;;;18.63;55.66;99621.74;109145;1276;23203;-66
2022/06/05 07:29:25;;;;;;;7.10;3.60;;;;;;;18.57;55.75;99623.08;109255;1276;22448;-64
2022/06/05 07:31:52;;;;;;;4.20;2.70;;;;;;;18.51;56.32;99621.74;109047;1276;138215;-63
2022/06/05 07:34:19;;;;;;;5.50;3.40;;;;;;;18.45;57.15;99620.01;109335;1274;22443;-64
2022/06/05 07:36:46;;;;;;;3.50;3.00;;;;;;;18.39;57.83;99624.88;109030;1276;138070;-63
2022/06/05 07:39:12;;;;;;;3.40;2.60;;;;;;;18.35;58.25;99627.60;109255;1274;22549;-63
2022/06/05 07:41:39;;;;;;;5.10;2.70;;;;;;;18.30;58.32;99628.15;109145;1275;23230;-63
2022/06/05 07:44:06;;;;;;;2.90;2.30;;;;;;;18.26;58.30;99631.31;108984;1274;138832;-63
2022/06/05 07:46:35;;;;;;;2.80;2.30;;;;;;;18.24;57.79;99630.36;109218;1274;22485;-61
2022/06/05 07:49:02;;;;;;;4.20;2.40;;;;;;;18.19;57.20;99629.45;108986;1276;138101;-63
2022/06/05 07:54:32;;;;;;;3.10;2.40;;;;;;;18.12;57.32;99629.23;109273;1273;22466;-63
2022/06/05 07:57:15;;;;;;;3.30;2.20;;;;;;;18.08;57.81;99625.88;109344;1274;23312;-62
2022/06/05 07:59:42;;;;;;;2.70;2.30;;;;;;;18.03;57.85;99628.90;109273;1275;22769;-62
2022/06/05 08:02:22;;;;;;;6.20;2.20;;;;;;;18.00;58.34;99625.92;109072;1276;138376;-65
2022/06/05 08:04:49;;;;;;;4.20;2.30;;;;;;;17.98;58.66;99623.92;109176;1277;22458;-63
2022/06/05 08:07:19;;;;;;;4.10;2.30;;;;;;;17.97;59.07;99623.38;109234;1274;137852;-63
2022/06/05 08:09:45;;;;;;;3.70;2.60;;;;;;;17.97;59.13;99619.13;109182;1277;23306;-63
2022/06/05 08:12:13;;;;;;;6.00;2.20;;;;;;;17.98;59.10;99618.13;109329;1274;22431;-63
2022/06/05 08:14:41;;;;;;;4.60;2.70;;;;;;;17.98;59.14;99616.35;109188;1274;138173;-63
2022/06/05 08:17:10;;;;;;;3.60;2.40;;;;;;;18.00;59.12;99613.08;109201;1276;22596;-64
2022/06/05 08:19:38;;;;;;;3.00;2.40;;;;;;;18.01;58.82;99613.11;109143;1274;137184;-62
2022/06/05 08:22:06;;;;;;;4.70;2.30;;;;;;;17.98;58.68;99610.69;109248;1275;22586;-63
2022/06/05 08:24:33;;;;;;;4.80;2.90;;;;;;;18.00;58.85;99615.72;109209;1274;138052;-63
2022/06/05 08:27:08;;;;;;;3.60;2.40;;;;;;;18.02;59.09;99614.30;109192;1276;22559;-62
2022/06/05 08:29:34;;;;;;;4.40;2.70;;;;;;;18.05;59.46;99617.27;109277;1276;22467;-59
2022/06/05 08:32:02;;;;;;;3.10;2.50;;;;;;;18.09;59.89;99616.93;109148;1276;137490;-61
2022/06/05 08:34:29;;;;;;;5.60;2.50;;;;;;;18.13;59.78;99617.85;109279;1276;23251;-62
2022/06/05 08:42:40;;;;;;;5.20;2.90;;;;;;;18.23;60.64;99621.72;109089;1276;137809;-64
2022/06/05 08:45:11;;;;;;;8.50;3.60;;;;;;;18.21;61.20;99620.65;109152;1277;22436;-58
2022/06/05 08:47:42;;;;;;;3.80;3.50;;;;;;;18.18;61.56;99620.48;109168;1274;22456;-61
2022/06/05 08:50:36;;;;;;;5.50;3.90;;;;;;;18.16;61.96;99618.41;109119;1274;137387;-62
2022/06/05 08:53:08;;;;;;;5.70;3.70;;;;;;;18.16;62.49;99618.63;108671;1281;23162;-62
2022/06/05 08:55:43;;;;;;;9.40;4.30;;;;;;;18.18;63.27;99618.35;108552;1281;138583;-61
2022/06/05 08:58:23;;;;;;;4.10;3.60;;;;;;;18.20;63.44;99620.67;108504;1281;22507;-62
2022/06/05 09:00:57;;;;;;;4.10;3.20;;;;;;;18.21;63.18;99622.38;108669;1281;139122;-62
2022/06/05 09:03:32;;;;;;;4.50;3.70;;;;;;;18.22;62.93;99625.98;108495;1284;23288;-63
2022/06/05 09:06:03;;;;;;;6.60;3.40;;;;;;;18.21;63.21;99626.44;108662;1281;22463;-63
2022/06/05 09:08:33;;;;;;;3.60;2.50;;;;;;;18.25;62.77;99635.64;108610;1281;138542;-60
2022/06/05 09:11:01;;;;;;;3.90;2.30;;;;;;;18.27;61.04;99631.73;108494;1281;22545;-63
2022/06/05 09:13:38;;;;;;;2.30;2.10;;;;;;;18.29;59.75;99633.20;108472;1281;137283;-63
2022/06/05 09:16:06;;;;;;;2.30;2.10;;;;;;;18.30;59.83;99639.18;108587;1281;22617;-63
2022/06/05 09:18:35;;;;;;;7.00;2.00;;;;;;;18.32;59.84;99640.95;108414;1281;137743;-62
2022/06/05 09:21:09;;;;;;;3.60;2.30;;;;;;;18.36;60.04;99643.68;108502;1281;22403;-62
2022/06/05 09:23:47;;;;;;;4.40;2.20;;;;;;;18.37;59.64;99648.15;108578;1281;22479;-62
2022/06/05 09:26:22;;;;;;;3.30;2.10;;;;;;;18.36;59.63;99648.27;108409;1284;137417;-61
2022/06/05 09:29:09;;;;;;;5.70;2.50;;;;;;;18.33;59.94;99654.62;108627;1281;22654;-62
2022/06/05 09:32:06;;;;;;;4.40;3.60;;;;;;;18.31;59.69;99651.66;108977;1277;137113;-63
2022/06/05 09:34:36;;;;;;;7.00;2.50;;;;;;;18.29;59.83;99655.54;109242;1274;22459;-62
2022/06/05 09:37:10;;;;;;;2.40;2.00;;;;;;;18.30;59.93;99655.02;108997;1277;138549;-63
2022/06/05 09:39:40;;;;;;;4.50;3.20;;;;;;;18.33;60.14;99656.17;109193;1277;22486;-63
2022/06/05 09:42:36;;;;;;;3.70;2.40;;;;;;;18.35;60.03;99658.21;109249;1276;23782;-63
2022/06/05 09:45:12;;;;;;;2.60;2.00;;;;;;;18.39;59.83;99659.53;109219;1276;23134;-62
2022/06/05 09:48:17;;;;;;;1.80;1.70;;;;;;;18.40;59.48;99656.53;109230;1277;22473;-62
2022/06/05 09:50:44;;;;;;;3.70;2.80;;;;;;;18.42;59.31;99652.81;108666;1281;22459;-63
2022/06/05 09:53:16;;;;;;;6.40;4.90;;;;;;;18.41;59.33;99654.31;108688;1281;22457;-62
2022/06/05 09:56:13;;;;;;;7.20;3.80;;;;;;;18.39;58.97;99650.81;108579;1281;138385;-63
2022/06/05 09:58:54;;;;;;;5.30;2.90;;;;;;;18.41;59.05;99654.27;108594;1283;22262;-63
2022/06/05 10:01:29;;;;;;;2.70;2.40;;;;;;;18.41;58.67;99654.42;108319;1283;139118;-62
2022/06/05 10:03:57;;;;;;;4.20;2.50;;;;;;;18.41;58.56;99656.25;108557;1282;22475;-62
2022/06/05 10:06:44;;;;;;;4.40;3.20;;;;;;;18.41;58.93;99657.78;106271;1282;138476;-61
2022/06/05 10:09:20;;;;;;;2.30;2.10;;;;;;;18.45;58.86;99652.70;104141;1281;22719;-62
2022/06/05 10:12:04;;;;;;;5.50;5.00;;;;;;;18.48;59.11;99650.63;108708;1280;23457;-62
2022/06/05 10:14:37;;;;;;;3.70;3.30;;;;;;;18.52;59.43;99651.20;108412;1282;137356;-62
2022/06/05 10:17:22;;;;;;;3.50;2.50;;;;;;;18.57;59.29;99652.56;108649;1280;23263;-63
2022/06/05 10:20:24;;;;;;;13.10;10.00;;;;;;;18.61;59.08;99654.46;108526;1281;137165;-58
2022/06/05 10:23:00;;;;;;;16.30;12.30;;;;;;;18.67;58.87;99651.80;109186;1277;22417;-58
2022/06/05 10:25:28;;;;;;;11.50;8.40;;;;;;;18.74;58.48;99652.66;109110;1276;139026;-59
2022/06/05 10:28:03;;;;;;;12.00;10.10;;;;;;;18.82;58.26;99655.75;109231;1275;22522;-63
2022/06/05 10:30:36;;;;;;;3.90;3.50;;;;;;;18.88;57.97;99654.48;109187;1274;139816;-64
2022/06/05 10:33:08;;;;;;;3.80;2.20;;;;;;;18.93;57.32;99660.80;109188;1276;22427;-64
2022/06/05 10:36:00;;;;;;;15.70;11.70;;;;;;;18.98;57.10;99661.09;109203;1276;22260;-63
2022/06/05 10:38:33;;;;;;;8.80;5.00;;;;;;;19.03;56.39;99663.22;109145;1274;138459;-64
2022/06/05 10:41:04;;;;;;;4.00;3.00;;;;;;;19.09;56.63;99661.93;109304;1274;22465;-63
2022/06/05 10:43:31;;;;;;;4.20;3.20;;;;;;;19.14;56.30;99659.84;109105;1274;137409;-63
2022/06/05 10:46:05;;;;;;;3.10;2.40;;;;;;;19.20;56.41;99656.28;109323;1274;22435;-64
2022/06/05 10:48:49;;;;;;;6.00;2.90;;;;;;;19.26;56.74;99658.55;109169;1274;138490;-63
2022/06/05 10:51:35;;;;;;;5.50;3.80;;;;;;;19.35;56.67;99658.65;109298;1274;22411;-63
2022/06/05 10:54:07;;;;;;;2.30;2.10;;;;;;;19.46;56.73;99660.15;109292;1274;22645;-64
2022/06/05 10:56:36;;;;;;;5.60;1.90;;;;;;;19.54;56.26;99660.03;109148;1274;137975;-64
2022/06/05 10:59:07;;;;;;;2.70;2.10;;;;;;;19.61;55.87;99660.81;109231;1273;22526;-64
2022/06/05 11:01:54;;;;;;;2.60;2.00;;;;;;;19.68;55.39;99657.64;109022;1273;138969;-63
2022/06/05 11:04:21;;;;;;;;;;;;;;;19.74;54.65;99661.89;109237;1274;22491;-63
2022/06/05 11:07:34;;;;;;;4.50;2.00;;;;;;;19.79;54.91;99662.02;109148;1276;125302;-64
2022/06/05 11:10:15;;;;;;;2.80;1.50;;;;;;;19.85;54.86;99659.52;109223;1274;22248;-63
2022/06/05 11:15:54;;;;;;;2.00;1.70;;;;;;;19.94;53.92;99658.05;109285;1274;23693;-64
2022/06/05 11:18:29;;;;;;;3.30;1.80;;;;;;;19.98;53.22;99657.66;109118;1273;138176;-65
2022/06/05 11:20:57;;;;;;;5.20;2.00;;;;;;;20.02;52.37;99652.33;109189;1273;23133;-64
2022/06/05 11:23:25;;;;;;;1.80;1.50;;;;;;;20.06;52.64;99652.98;109269;1273;22413;-65
2022/06/05 11:26:04;;;;;;;4.00;1.70;;;;;;;20.11;52.44;99654.18;109200;1273;138435;-64
2022/06/05 11:28:42;;;;;;;2.30;1.60;;;;;;;20.15;52.76;99650.76;109232;1274;23076;-64
2022/06/05 11:31:13;;;;;;;3.60;1.60;;;;;;;20.20;52.22;99653.15;109181;1273;138599;-63
2022/06/05 11:33:52;;;;;;;2.20;1.70;;;;;;;20.24;51.44;99655.70;109303;1273;23375;-63
2022/06/05 11:36:37;;;;;;;3.40;1.70;;;;;;;20.28;51.83;99653.61;109196;1273;138343;-64
2022/06/05 11:39:07;;;;;;;2.20;1.70;;;;;;;20.33;51.54;99650.00;109250;1273;22479;-58
2022/06/05 11:41:37;;;;;;;3.10;1.60;;;;;;;20.37;50.26;99650.60;109316;1273;22491;-62
2022/06/05 11:44:16;;;;;;;2.40;1.50;;;;;;;20.40;49.08;99651.91;109231;1274;138048;-62
2022/06/05 11:46:56;;;;;;;1.60;1.50;;;;;;;20.44;48.79;99651.70;109267;1274;22383;-62
2022/06/05 11:49:48;;;;;;;1.60;1.50;;;;;;;20.50;49.43;99652.20;109144;1274;137684;-62
2022/06/05 11:52:41;;;;;;;5.30;1.80;;;;;;;20.56;48.83;99652.67;109232;1273;23300;-63
2022/06/05 11:55:11;;;;;;;2.80;2.00;;;;;;;20.61;48.87;99650.45;109175;1274;137370;-63
2022/06/05 11:57:41;;;;;;;3.00;1.40;;;;;;;20.64;48.88;99650.55;109288;1274;22569;-63
2022/06/05 12:00:21;;;;;;;7.00;1.80;;;;;;;20.67;48.34;99654.07;109160;1276;22465;-63
2022/06/05 12:03:20;;;;;;;1.90;1.40;;;;;;;20.70;48.43;99659.79;109265;1274;23278;-62